Time;durP1;ratioP1;P1;durP2;ratioP2;P2;SDS_P1;SDS_P2;PMS_P1;PMS_P2;Temp;Humidity;BMP_temperature;BMP_pressure;BME280_temperature;BME280_humidity;BME280_pressure;Samples;Min_cycle;Max_cycle;Signal;HPM_P1;HPM_P2
2023/03/04 00:01:57;;;;;;;16.02;3.58;;;;;;;7.12;81.24;102558.28;5252374;28;20115;-72
2023/03/04 00:04:29;;;;;;;10.57;3.08;;;;;;;7.07;80.30;102549.84;5258710;28;20045;-71
2023/03/04 00:07:00;;;;;;;15.98;2.83;;;;;;;7.09;80.87;102558.44;5259745;28;20025;-72
2023/03/04 00:09:31;;;;;;;12.50;3.00;;;;;;;7.06;80.93;102562.03;5260090;28;20025;-72
2023/03/04 00:12:03;;;;;;;13.00;3.65;;;;;;;7.07;82.41;102550.69;5258505;28;20017;-71
2023/03/04 00:14:34;;;;;;;16.48;3.03;;;;;;;7.01;81.62;102556.19;5257942;28;20082;-72
2023/03/04 00:17:06;;;;;;;12.63;3.10;;;;;;;7.06;81.93;102559.41;5260045;28;20056;-71
2023/03/04 00:19:38;;;;;;;12.10;2.80;;;;;;;7.05;82.58;102555.13;5259335;28;20035;-72
2023/03/04 00:22:09;;;;;;;15.63;3.78;;;;;;;7.06;82.03;102559.41;5258693;28;20095;-72
2023/03/04 00:24:40;;;;;;;16.20;3.08;;;;;;;7.05;82.09;102546.47;5259823;28;20090;-72
2023/03/04 00:27:11;;;;;;;17.73;2.92;;;;;;;6.98;82.82;102540.66;5256498;28;20073;-72
2023/03/04 00:29:43;;;;;;;14.27;2.88;;;;;;;7.03;82.12;102550.88;5258009;28;20029;-72
2023/03/04 00:32:15;;;;;;;20.17;3.67;;;;;;;6.99;83.22;102537.13;5259424;28;20029;-72
2023/03/04 00:34:46;;;;;;;13.50;2.85;;;;;;;7.00;81.72;102545.78;5257732;28;20390;-72
2023/03/04 00:37:17;;;;;;;12.60;2.90;;;;;;;7.00;82.57;102536.22;5258848;28;20029;-72
2023/03/04 00:39:49;;;;;;;18.38;3.33;;;;;;;7.03;82.25;102541.31;5258717;28;20098;-72
2023/03/04 00:42:20;;;;;;;12.45;2.67;;;;;;;7.04;82.94;102535.16;5257709;28;20032;-72
2023/03/04 00:44:51;;;;;;;14.38;3.38;;;;;;;7.00;83.48;102532.78;5257813;28;20025;-72
2023/03/04 00:47:22;;;;;;;16.15;3.40;;;;;;;7.01;84.21;102537.94;5258441;28;20111;-72
2023/03/04 00:49:54;;;;;;;17.67;4.05;;;;;;;7.07;84.00;102544.63;5257059;28;20048;-71
2023/03/04 00:52:25;;;;;;;13.38;2.90;;;;;;;7.07;84.10;102550.69;5257566;28;20040;-72
2023/03/04 00:54:56;;;;;;;12.90;3.40;;;;;;;7.09;83.39;102541.97;5257290;28;20044;-72
2023/03/04 00:57:28;;;;;;;16.13;4.00;;;;;;;7.14;83.92;102542.59;5258953;28;20466;-72
2023/03/04 00:59:59;;;;;;;17.17;3.60;;;;;;;7.00;84.08;102548.41;5258739;28;20563;-72
2023/03/04 01:02:30;;;;;;;12.85;3.40;;;;;;;7.05;84.31;102541.25;5255319;28;20135;-72
2023/03/04 01:05:02;;;;;;;10.00;3.53;;;;;;;7.01;85.27;102542.31;5256395;28;20032;-72
2023/03/04 01:07:33;;;;;;;13.07;3.63;;;;;;;6.99;86.19;102547.56;5258686;28;20031;-72
2023/03/04 01:10:07;;;;;;;15.88;3.80;;;;;;;7.00;85.72;102546.63;5258117;28;20387;-72
2023/03/04 01:12:41;;;;;;;16.65;3.25;;;;;;;6.93;85.59;102549.56;5256538;28;20040;-72
2023/03/04 01:15:13;;;;;;;13.18;3.13;;;;;;;6.92;85.50;102546.13;5256960;28;20028;-72
2023/03/04 01:17:44;;;;;;;16.55;3.15;;;;;;;6.97;84.70;102549.41;5258720;28;20066;-72
2023/03/04 01:20:16;;;;;;;16.60;3.13;;;;;;;6.94;85.49;102548.69;5258341;28;20025;-72
2023/03/04 01:22:47;;;;;;;18.13;3.08;;;;;;;6.95;85.56;102550.38;5256759;28;20599;-72
2023/03/04 01:25:19;;;;;;;16.55;4.43;;;;;;;7.01;85.55;102550.97;5256584;28;20028;-72
2023/03/04 01:27:50;;;;;;;18.42;3.38;;;;;;;7.00;85.08;102549.25;5257986;28;20028;-72
2023/03/04 01:30:21;;;;;;;12.02;3.08;;;;;;;7.01;85.65;102545.75;5257754;28;20056;-71
2023/03/04 01:32:52;;;;;;;12.38;2.88;;;;;;;6.98;84.94;102542.44;5258113;28;20032;-72
2023/03/04 01:35:24;;;;;;;14.73;2.88;;;;;;;7.01;84.49;102540.53;5257965;28;20093;-72
2023/03/04 01:37:55;;;;;;;17.00;2.83;;;;;;;7.03;85.45;102540.47;5257311;28;20032;-72
2023/03/04 01:40:26;;;;;;;13.68;2.80;;;;;;;7.11;85.82;102540.13;5257990;28;20025;-72
2023/03/04 01:42:58;;;;;;;20.27;3.47;;;;;;;7.10;85.44;102533.22;5256460;28;20027;-72
2023/03/04 01:45:31;;;;;;;13.65;3.50;;;;;;;7.11;85.28;102538.38;5257198;28;20028;-72
2023/03/04 01:48:03;;;;;;;;;;;;;;;7.76;81.34;102536.34;5258622;28;20119;-72
2023/03/04 01:50:34;;;;;;;19.00;3.47;;;;;;;7.05;82.74;102523.84;5255536;28;20429;-72
2023/03/04 01:53:06;;;;;;;16.33;3.45;;;;;;;7.04;84.15;102527.34;5258002;28;20432;-72
2023/03/04 01:55:37;;;;;;;13.82;2.63;;;;;;;7.04;83.49;102519.53;5257064;28;20120;-72
2023/03/04 01:58:10;;;;;;;18.40;3.22;;;;;;;7.04;83.99;102514.31;5256032;28;20440;-72
2023/03/04 02:00:41;;;;;;;;;;;;;;;7.66;80.57;102512.47;5256174;28;20090;-71
2023/03/04 02:03:18;;;;;;;11.75;2.22;;;;;;;7.17;82.60;102508.59;5255594;28;19920;-72
2023/03/04 02:05:51;;;;;;;11.48;2.25;;;;;;;7.07;83.98;102506.38;5257255;28;20576;-72
2023/03/04 02:08:23;;;;;;;12.95;2.90;;;;;;;7.05;84.10;102503.00;5257683;28;20048;-71
2023/03/04 02:10:55;;;;;;;15.75;2.80;;;;;;;7.06;84.78;102502.09;5254675;28;20087;-72
2023/03/04 02:13:26;;;;;;;14.23;2.30;;;;;;;7.02;85.36;102499.69;5259119;22;20060;-73
2023/03/04 02:15:57;;;;;;;11.63;2.70;;;;;;;7.02;84.26;102500.53;5239779;28;20028;-73
2023/03/04 02:18:29;;;;;;;13.15;2.13;;;;;;;7.01;84.20;102498.00;5246606;28;20024;-73
2023/03/04 02:21:11;;;;;;;13.60;2.92;;;;;;;7.13;84.70;102507.88;5249473;28;20017;-73
2023/03/04 02:23:55;;;;;;;13.25;2.80;;;;;;;7.10;83.91;102496.75;5245765;28;20100;-73
2023/03/04 02:26:28;;;;;;;9.55;2.30;;;;;;;6.99;82.80;102490.22;5245689;28;20036;-73
2023/03/04 02:29:01;;;;;;;12.80;3.03;;;;;;;6.98;83.24;102496.38;5240716;28;20017;-73
2023/03/04 02:31:50;;;;;;;12.55;2.58;;;;;;;7.20;84.86;102495.44;5242106;28;20033;-73
2023/03/04 02:34:26;;;;;;;9.38;2.50;;;;;;;7.03;84.25;102497.00;5243960;28;20029;-73
2023/03/04 02:36:58;;;;;;;11.50;2.63;;;;;;;6.98;85.14;102490.31;5244068;28;20024;-74
2023/03/04 02:39:38;;;;;;;10.30;2.22;;;;;;;7.10;85.60;102487.16;5241770;28;20019;-73
2023/03/04 02:42:09;;;;;;;8.77;2.10;;;;;;;7.04;84.66;102488.25;5241766;28;20584;-73
2023/03/04 02:44:45;;;;;;;10.88;2.35;;;;;;;7.05;85.34;102481.31;5247654;28;20104;-73
2023/03/04 02:47:17;;;;;;;10.20;2.42;;;;;;;7.01;84.54;102487.59;5246158;28;20044;-73
2023/03/04 02:49:48;;;;;;;14.93;2.60;;;;;;;7.06;84.44;102478.63;5244724;28;20029;-73
2023/03/04 02:52:22;;;;;;;10.57;2.22;;;;;;;7.09;85.13;102482.03;5247586;28;20025;-73
2023/03/04 02:54:53;;;;;;;9.43;1.95;;;;;;;7.00;85.66;102471.06;5243377;28;20386;-73
2023/03/04 02:57:25;;;;;;;11.60;2.15;;;;;;;7.04;85.11;102471.78;5244440;28;20032;-73
2023/03/04 02:59:56;;;;;;;11.05;2.00;;;;;;;7.05;85.67;102474.34;5244289;28;20021;-73
2023/03/04 03:02:27;;;;;;;13.02;3.03;;;;;;;7.05;85.96;102474.34;5242269;28;20025;-74
2023/03/04 03:04:58;;;;;;;12.95;2.33;;;;;;;7.06;85.90;102470.81;5246945;28;20041;-74
2023/03/04 03:07:30;;;;;;;11.00;2.25;;;;;;;7.05;85.44;102473.50;5241430;28;20021;-74
2023/03/04 03:10:01;;;;;;;13.85;2.38;;;;;;;7.01;86.22;102470.19;5244978;28;20080;-74
2023/03/04 03:12:32;;;;;;;8.98;2.30;;;;;;;6.99;85.12;102466.78;5244361;28;20025;-74
2023/03/04 03:15:04;;;;;;;12.07;2.55;;;;;;;6.96;86.49;102472.13;5244851;28;20060;-74
2023/03/04 03:17:35;;;;;;;10.23;2.72;;;;;;;6.98;85.99;102462.50;5248412;28;20098;-73
2023/03/04 03:20:10;;;;;;;10.65;2.30;;;;;;;6.98;86.71;102462.50;5249070;28;20065;-74
2023/03/04 03:22:42;;;;;;;12.32;2.40;;;;;;;6.96;86.06;102468.66;5244509;28;20021;-74
2023/03/04 03:25:15;;;;;;;9.32;1.95;;;;;;;6.92;87.24;102470.56;5246045;28;20036;-74
2023/03/04 03:27:46;;;;;;;16.67;2.72;;;;;;;6.94;87.08;102465.31;5244542;28;20030;-74
2023/03/04 03:30:17;;;;;;;9.85;2.40;;;;;;;6.96;86.55;102459.09;5245592;28;20397;-74
2023/03/04 03:32:49;;;;;;;9.73;2.58;;;;;;;6.96;88.02;102459.09;5242639;28;20396;-75
2023/03/04 03:35:20;;;;;;;11.77;2.97;;;;;;;6.89;88.53;102454.22;5242663;28;20029;-74
2023/03/04 03:37:51;;;;;;;13.48;2.20;;;;;;;6.96;87.74;102459.09;5245700;28;20029;-74
2023/03/04 03:40:22;;;;;;;11.98;2.22;;;;;;;7.03;87.99;102455.31;5240377;28;20025;-74
2023/03/04 03:42:54;;;;;;;12.93;2.60;;;;;;;6.99;87.54;102461.56;5245591;28;20013;-74
2023/03/04 03:45:25;;;;;;;12.95;2.72;;;;;;;6.84;87.85;102436.19;5245033;28;20036;-75
2023/03/04 03:47:57;;;;;;;14.02;2.17;;;;;;;6.98;87.95;102448.63;5246479;28;20037;-74
2023/03/04 03:50:28;;;;;;;9.70;2.42;;;;;;;6.99;88.34;102451.16;5240739;28;20508;-74
2023/03/04 03:52:59;;;;;;;9.27;2.25;;;;;;;6.99;87.70;102456.34;5240589;28;20474;-74
2023/03/04 03:55:31;;;;;;;10.77;2.08;;;;;;;6.96;87.48;102453.03;5250314;28;20043;-75
2023/03/04 03:58:02;;;;;;;11.00;2.40;;;;;;;6.89;87.70;102452.44;5238922;28;20352;-74
2023/03/04 04:00:33;;;;;;;9.85;2.40;;;;;;;6.90;87.95;102454.16;5240572;28;20056;-74
2023/03/04 04:03:05;;;;;;;8.85;2.20;;;;;;;6.94;86.81;102453.13;5236662;28;20045;-75
2023/03/04 04:05:36;;;;;;;15.27;2.70;;;;;;;7.00;86.50;102455.44;5244700;28;20037;-75
2023/03/04 04:08:12;;;;;;;10.02;1.70;;;;;;;7.13;83.99;102450.53;5242969;28;20386;-74
2023/03/04 04:10:43;;;;;;;12.25;2.58;;;;;;;7.00;82.48;102455.44;5249218;28;20033;-74
2023/03/04 04:13:15;;;;;;;11.57;2.40;;;;;;;6.98;82.61;102457.28;5240521;28;20052;-74
2023/03/04 04:15:46;;;;;;;9.77;1.75;;;;;;;7.01;81.45;102456.31;5244730;28;20508;-75
2023/03/04 04:18:17;;;;;;;12.13;2.35;;;;;;;6.99;82.50;102455.50;5239397;28;20029;-74
2023/03/04 04:20:51;;;;;;;12.60;2.65;;;;;;;7.03;82.96;102450.09;5240092;28;20462;-74
2023/03/04 04:23:22;;;;;;;10.82;2.20;;;;;;;6.97;83.15;102453.00;5245645;28;20033;-74
2023/03/04 04:25:54;;;;;;;16.75;2.60;;;;;;;6.93;83.91;102456.66;5244789;28;20385;-74
2023/03/04 04:28:25;;;;;;;9.52;1.75;;;;;;;6.92;84.56;102460.13;5245591;28;20423;-74
2023/03/04 04:30:57;;;;;;;13.43;2.88;;;;;;;6.88;84.37;102466.41;5241811;28;20045;-74
2023/03/04 04:33:28;;;;;;;13.25;2.10;;;;;;;6.87;85.42;102458.66;5240942;28;20035;-74
2023/03/04 04:36:00;;;;;;;12.70;2.45;;;;;;;6.90;85.37;102459.38;5237400;28;20029;-75
2023/03/04 04:38:31;;;;;;;9.68;2.25;;;;;;;6.87;85.53;102462.09;5244559;28;20382;-74
2023/03/04 04:41:03;;;;;;;11.00;2.70;;;;;;;6.87;85.52;102456.91;5247950;28;20012;-74
2023/03/04 04:43:34;;;;;;;9.10;1.80;;;;;;;6.85;85.25;102461.31;5245434;28;20113;-74
2023/03/04 04:46:07;;;;;;;13.50;1.95;;;;;;;6.92;84.16;102461.91;5249688;28;20369;-74
2023/03/04 04:48:38;;;;;;;9.98;2.08;;;;;;;6.76;85.06;102459.97;5242466;28;20063;-74
2023/03/04 04:51:10;;;;;;;14.27;2.40;;;;;;;6.74;85.08;102464.41;5246382;28;20457;-75
2023/03/04 04:53:43;;;;;;;11.52;1.75;;;;;;;6.73;86.20;102464.47;5241375;28;20203;-74
2023/03/04 04:56:18;;;;;;;10.23;2.20;;;;;;;6.80;86.80;102471.94;5249002;28;20041;-74
2023/03/04 04:58:49;;;;;;;12.60;2.67;;;;;;;6.78;84.59;102465.09;5245629;28;20025;-74
2023/03/04 05:01:21;;;;;;;9.38;2.13;;;;;;;6.76;85.60;102466.94;5244587;28;20036;-75
2023/03/04 05:03:54;;;;;;;10.57;2.10;;;;;;;6.80;85.92;102468.50;5244875;28;20021;-74
2023/03/04 05:06:26;;;;;;;10.83;2.20;;;;;;;6.75;85.58;102455.69;5247688;28;20449;-74
2023/03/04 05:08:57;;;;;;;10.23;2.40;;;;;;;6.73;84.57;102465.28;5247367;28;20527;-74
2023/03/04 05:11:28;;;;;;;11.43;2.38;;;;;;;6.74;84.60;102460.94;5250482;28;20031;-74
2023/03/04 05:13:59;;;;;;;12.73;1.90;;;;;;;6.75;85.58;102460.88;5247657;28;20433;-74
2023/03/04 05:16:32;;;;;;;11.35;2.45;;;;;;;6.74;85.64;102464.41;5242837;28;20025;-74
2023/03/04 05:19:03;;;;;;;11.68;2.78;;;;;;;6.77;84.82;102464.25;5248284;28;20033;-74
2023/03/04 05:21:34;;;;;;;10.00;2.05;;;;;;;6.76;85.82;102456.53;5247126;28;20079;-74
2023/03/04 05:24:05;;;;;;;13.93;2.88;;;;;;;6.78;85.79;102462.50;5237699;28;20026;-74
2023/03/04 05:26:37;;;;;;;12.07;2.47;;;;;;;6.81;86.07;102455.38;5242311;28;20044;-74
2023/03/04 05:29:08;;;;;;;14.88;2.60;;;;;;;6.79;85.83;102464.22;5247764;28;20375;-74
2023/03/04 05:31:39;;;;;;;14.05;3.05;;;;;;;6.79;85.86;102464.22;5241776;28;20058;-74
2023/03/04 05:34:11;;;;;;;10.90;1.77;;;;;;;6.70;85.87;102461.97;5245652;28;20025;-74
2023/03/04 05:36:42;;;;;;;10.45;2.08;;;;;;;6.69;86.38;102463.75;5247444;28;20041;-74
2023/03/04 05:39:13;;;;;;;13.35;3.05;;;;;;;6.69;87.12;102460.28;5245528;28;20123;-74
2023/03/04 05:41:44;;;;;;;14.55;2.22;;;;;;;6.71;86.76;102463.69;5244845;28;20032;-74
2023/03/04 05:44:16;;;;;;;8.73;2.15;;;;;;;6.71;85.30;102468.91;5247875;28;20036;-74
2023/03/04 05:46:47;;;;;;;10.07;1.85;;;;;;;6.72;84.60;102470.59;5246576;28;20019;-74
2023/03/04 05:49:19;;;;;;;12.88;1.83;;;;;;;6.72;84.73;102463.63;5245073;28;20037;-74
2023/03/04 05:51:50;;;;;;;9.40;2.20;;;;;;;6.73;84.57;102472.28;5246327;28;20544;-74
2023/03/04 05:54:21;;;;;;;8.73;1.63;;;;;;;6.76;84.47;102466.94;5247144;28;20033;-74
2023/03/04 05:56:53;;;;;;;14.13;2.17;;;;;;;6.73;85.01;102469.66;5246457;28;20021;-74
2023/03/04 05:59:24;;;;;;;11.95;1.90;;;;;;;6.66;86.37;102465.63;5241320;28;20063;-74
2023/03/04 06:01:56;;;;;;;9.45;2.20;;;;;;;6.73;85.67;102478.31;5243873;28;20026;-74
2023/03/04 06:04:27;;;;;;;10.07;2.58;;;;;;;6.83;84.79;102473.56;5244525;28;20112;-74
2023/03/04 06:06:58;;;;;;;9.80;2.13;;;;;;;6.83;84.71;102476.19;5248259;28;20331;-74
2023/03/04 06:09:30;;;;;;;7.85;1.70;;;;;;;6.75;86.63;102476.50;5243395;28;20402;-74
2023/03/04 06:12:01;;;;;;;9.43;1.88;;;;;;;6.75;87.14;102479.13;5243626;28;20029;-74
2023/03/04 06:14:32;;;;;;;8.80;2.28;;;;;;;6.76;88.97;102487.78;5241958;28;20082;-74
2023/03/04 06:17:03;;;;;;;9.57;1.63;;;;;;;6.68;90.83;102476.84;5240355;28;20025;-74
2023/03/04 06:19:36;;;;;;;8.82;1.65;;;;;;;6.64;91.66;102476.13;5244619;28;20053;-74
2023/03/04 06:22:08;;;;;;;11.35;2.15;;;;;;;6.71;90.29;102480.16;5242887;28;20025;-74
2023/03/04 06:24:40;;;;;;;9.38;2.67;;;;;;;6.62;91.71;102474.47;5243430;28;20127;-73
2023/03/04 06:27:12;;;;;;;6.07;1.70;;;;;;;6.67;91.88;102478.59;5246669;28;20033;-74
2023/03/04 06:29:43;;;;;;;8.25;1.67;;;;;;;6.64;93.00;102483.94;5249855;28;20029;-74
2023/03/04 06:32:14;;;;;;;8.60;1.58;;;;;;;6.60;94.32;102489.34;5240035;28;20478;-74
2023/03/04 06:34:46;;;;;;;8.60;2.33;;;;;;;6.61;95.51;102496.22;5246398;28;20069;-74
2023/03/04 06:37:17;;;;;;;9.25;1.63;;;;;;;6.54;97.89;102488.66;5240611;28;20041;-74
2023/03/04 06:39:49;;;;;;;12.25;1.85;;;;;;;6.52;99.74;102485.28;5245811;28;20029;-74
2023/03/04 06:42:20;;;;;;;8.32;2.13;;;;;;;6.54;100.00;102488.66;5243802;28;20044;-74
2023/03/04 06:44:51;;;;;;;7.72;1.92;;;;;;;6.52;100.00;102490.50;5246029;28;20481;-74
2023/03/04 06:47:23;;;;;;;7.68;1.73;;;;;;;6.58;100.00;102494.59;5242069;28;20037;-74
2023/03/04 06:49:54;;;;;;;10.02;2.20;;;;;;;6.54;100.00;102487.81;5244740;28;20059;-74
2023/03/04 06:52:25;;;;;;;7.80;2.13;;;;;;;6.61;100.00;102494.47;5245061;28;20413;-74
2023/03/04 06:54:57;;;;;;;10.40;2.08;;;;;;;6.59;100.00;102498.88;5246142;28;20507;-74
2023/03/04 06:57:28;;;;;;;8.57;1.80;;;;;;;6.58;100.00;102500.63;5242660;28;20433;-74
2023/03/04 07:00:00;;;;;;;8.13;2.00;;;;;;;6.60;100.00;102497.16;5240929;28;20387;-74
2023/03/04 07:02:31;;;;;;;12.85;2.00;;;;;;;6.57;100.00;102506.78;5239651;28;20335;-74
2023/03/04 07:05:03;;;;;;;9.07;2.00;;;;;;;6.58;100.00;102507.63;5233978;28;20033;-75
2023/03/04 07:07:34;;;;;;;6.60;1.98;;;;;;;6.55;100.00;102497.31;5243405;28;20025;-74
2023/03/04 07:10:06;;;;;;;7.90;2.20;;;;;;;6.56;100.00;102494.66;5238878;28;20044;-75
2023/03/04 07:12:37;;;;;;;10.95;3.45;;;;;;;6.61;100.00;102494.47;5237090;28;20033;-74
2023/03/04 07:15:09;;;;;;;9.05;1.67;;;;;;;6.67;100.00;102504.66;5245606;28;20167;-74
2023/03/04 07:17:40;;;;;;;7.60;1.98;;;;;;;6.69;100.00;102509.78;5243094;28;20040;-75
2023/03/04 07:20:11;;;;;;;7.25;1.90;;;;;;;6.74;100.00;102513.03;5240972;28;20836;-74
2023/03/04 07:22:43;;;;;;;8.73;2.22;;;;;;;6.69;100.00;102505.41;5244383;28;20529;-75
2023/03/04 07:25:16;;;;;;;10.40;2.42;;;;;;;6.77;100.00;102510.28;5241459;28;20075;-74
2023/03/04 07:27:47;;;;;;;9.50;2.90;;;;;;;6.79;100.00;102521.50;5241198;28;20026;-75
2023/03/04 07:30:19;;;;;;;7.57;2.17;;;;;;;6.82;100.00;102517.03;5246138;28;20091;-74
2023/03/04 07:32:52;;;;;;;6.93;1.83;;;;;;;6.89;100.00;102516.75;5244660;28;20132;-75
2023/03/04 07:35:23;;;;;;;12.65;2.20;;;;;;;6.87;100.00;102526.41;5242456;28;20534;-75
2023/03/04 07:37:54;;;;;;;13.77;3.03;;;;;;;6.88;100.00;102531.53;5242379;28;20025;-75
2023/03/04 07:40:26;;;;;;;11.20;2.58;;;;;;;6.90;100.00;102528.88;5243060;28;20037;-75
2023/03/04 07:42:57;;;;;;;9.20;2.20;;;;;;;6.93;100.00;102531.31;5238754;28;20074;-75
2023/03/04 07:45:28;;;;;;;11.88;2.35;;;;;;;6.91;100.00;102538.38;5243713;28;20056;-75
2023/03/04 07:48:00;;;;;;;6.85;1.83;;;;;;;6.91;100.00;102538.38;5242481;28;20116;-74
2023/03/04 07:50:31;;;;;;;8.73;2.33;;;;;;;6.94;100.00;102538.25;5241229;28;20025;-73
2023/03/04 07:53:02;;;;;;;11.68;2.63;;;;;;;6.96;100.00;102542.47;5246609;28;20082;-75
2023/03/04 07:55:33;;;;;;;8.30;1.83;;;;;;;6.94;100.00;102541.72;5240262;28;20030;-75
2023/03/04 07:58:05;;;;;;;7.68;2.35;;;;;;;6.91;100.00;102536.63;5248354;28;20037;-75
2023/03/04 08:00:36;;;;;;;6.75;1.90;;;;;;;6.92;100.00;102546.13;5245916;28;20026;-74
2023/03/04 08:03:07;;;;;;;12.25;2.97;;;;;;;6.91;100.00;102539.22;5241866;28;20040;-75
2023/03/04 08:05:39;;;;;;;9.70;2.17;;;;;;;6.93;100.00;102544.34;5245171;28;20090;-75
2023/03/04 08:08:10;;;;;;;6.35;1.90;;;;;;;6.96;100.00;102539.88;5242107;28;20025;-75
2023/03/04 08:10:42;;;;;;;9.93;2.70;;;;;;;7.01;100.00;102545.75;5240230;28;20033;-75
2023/03/04 08:13:13;;;;;;;9.32;2.25;;;;;;;6.99;100.00;102546.72;5245510;28;20564;-75
2023/03/04 08:15:44;;;;;;;8.05;3.10;;;;;;;7.00;100.00;102544.03;5243691;28;20041;-75
2023/03/04 08:18:15;;;;;;;11.13;2.20;;;;;;;6.97;100.00;102538.97;5251424;22;20598;-73
2023/03/04 08:20:47;;;;;;;6.30;2.13;;;;;;;7.02;100.00;102528.34;5238675;28;20151;-72
2023/03/04 08:23:18;;;;;;;9.50;2.90;;;;;;;7.14;100.00;102540.84;5242065;28;20495;-72
2023/03/04 08:25:50;;;;;;;9.32;2.00;;;;;;;7.10;100.00;102543.66;5246157;28;20496;-72
2023/03/04 08:28:21;;;;;;;8.43;2.20;;;;;;;7.17;100.00;102545.09;5247368;28;20029;-72
2023/03/04 08:30:53;;;;;;;9.82;2.42;;;;;;;7.14;100.00;102548.66;5245472;28;20100;-72
2023/03/04 08:33:24;;;;;;;13.73;2.67;;;;;;;7.19;100.00;102545.84;5247800;28;20037;-72
2023/03/04 08:35:55;;;;;;;11.07;2.50;;;;;;;7.24;100.00;102542.16;5248043;28;20024;-72
2023/03/04 08:38:27;;;;;;;9.75;2.60;;;;;;;7.28;100.00;102548.91;5245235;28;20027;-72
2023/03/04 08:40:58;;;;;;;8.18;2.58;;;;;;;7.35;100.00;102548.63;5245299;28;20021;-72
2023/03/04 08:43:31;;;;;;;8.32;2.08;;;;;;;7.35;100.00;102546.03;5248865;28;20037;-72
2023/03/04 08:46:03;;;;;;;13.50;2.50;;;;;;;7.43;100.00;102555.22;5253280;28;20021;-73
2023/03/04 08:48:37;;;;;;;8.73;3.03;;;;;;;7.36;100.00;102540.75;5248191;28;20030;-73
2023/03/04 08:51:10;;;;;;;9.00;2.80;;;;;;;7.53;100.00;102551.28;5243239;28;20029;-73
2023/03/04 08:53:41;;;;;;;9.05;2.38;;;;;;;7.65;100.00;102549.03;5245464;28;20124;-72
2023/03/04 08:56:13;;;;;;;8.13;2.97;;;;;;;7.75;100.00;102550.31;5247737;28;20104;-72
2023/03/04 08:58:45;;;;;;;12.13;2.35;;;;;;;7.88;100.00;102548.84;5249415;28;20035;-72
2023/03/04 09:01:16;;;;;;;7.55;3.17;;;;;;;7.99;100.00;102548.34;5246529;28;20406;-72
2023/03/04 09:03:47;;;;;;;7.07;2.50;;;;;;;7.98;100.00;102539.66;5248753;28;20061;-73
2023/03/04 09:06:19;;;;;;;7.10;2.58;;;;;;;8.04;100.00;102547.22;5245529;28;20517;-73
2023/03/04 09:08:50;;;;;;;7.07;2.58;;;;;;;8.03;100.00;102532.47;5246885;28;20051;-72
2023/03/04 09:11:21;;;;;;;8.10;2.30;;;;;;;8.12;100.00;102543.41;5244251;28;20087;-72
2023/03/04 09:13:53;;;;;;;7.63;2.53;;;;;;;8.17;99.84;102533.56;5245935;28;20563;-73
2023/03/04 09:16:24;;;;;;;8.52;2.22;;;;;;;8.16;98.96;102527.50;5244905;28;20033;-73
2023/03/04 09:18:55;;;;;;;7.60;2.28;;;;;;;8.18;98.52;102524.81;5243016;28;20025;-72
2023/03/04 09:21:27;;;;;;;5.15;1.88;;;;;;;8.27;99.14;102527.84;5248770;28;20097;-73
2023/03/04 09:23:58;;;;;;;7.05;1.83;;;;;;;8.35;96.04;102534.47;5248954;28;20104;-72
2023/03/04 09:26:29;;;;;;;5.72;1.67;;;;;;;8.28;95.56;102499.97;5243002;28;20024;-73
2023/03/04 09:29:01;;;;;;;5.45;1.92;;;;;;;8.45;95.07;102523.53;5248821;28;20020;-73
2023/03/04 09:31:33;;;;;;;7.20;2.47;;;;;;;8.52;94.70;102532.75;5247147;28;20036;-73
2023/03/04 09:34:04;;;;;;;4.30;1.40;;;;;;;8.55;95.90;102525.69;5247034;28;20486;-73
2023/03/04 09:36:35;;;;;;;5.50;1.45;;;;;;;8.59;93.45;102514.16;5243809;28;20029;-73
2023/03/04 09:39:06;;;;;;;5.82;1.35;;;;;;;8.64;93.46;102515.63;5245866;28;20175;-73
2023/03/04 09:41:40;;;;;;;7.63;1.77;;;;;;;8.70;93.43;102517.91;5246129;28;20379;-73
2023/03/04 09:44:26;;;;;;;7.20;1.88;;;;;;;8.99;94.46;102520.84;5243606;28;20029;-73
2023/03/04 09:47:01;;;;;;;8.63;1.88;;;;;;;8.99;92.64;102524.28;5244504;28;20021;-73
2023/03/04 09:49:33;;;;;;;4.32;1.27;;;;;;;9.00;91.87;102525.13;5243652;28;20099;-73
2023/03/04 09:52:20;;;;;;;4.90;1.00;;;;;;;9.35;90.53;102514.59;5243455;28;20136;-73
2023/03/04 09:55:12;;;;;;;7.18;1.10;;;;;;;9.40;87.71;102518.69;5248482;28;20037;-73
2023/03/04 09:57:52;;;;;;;4.28;1.10;;;;;;;9.19;88.75;102517.19;5240267;28;20035;-73
2023/03/04 10:00:45;;;;;;;4.47;1.15;;;;;;;9.45;88.49;102516.66;5239628;28;20058;-73
2023/03/04 10:03:19;;;;;;;8.75;1.50;;;;;;;9.22;88.49;102523.09;5243190;28;20053;-73
2023/03/04 10:06:03;;;;;;;5.07;1.08;;;;;;;9.27;88.43;102528.09;5245788;28;20048;-73
2023/03/04 10:08:43;;;;;;;3.80;1.17;;;;;;;9.22;88.57;102524.88;5241911;28;20033;-73
2023/03/04 10:11:39;;;;;;;3.83;1.20;;;;;;;9.37;88.23;102525.84;5239702;28;20064;-73
2023/03/04 10:14:15;;;;;;;18.58;2.13;;;;;;;9.38;87.64;102517.06;5246262;28;20056;-73
2023/03/04 10:16:58;;;;;;;4.35;1.33;;;;;;;9.48;85.75;102513.88;5247584;28;20053;-73
2023/03/04 10:19:50;;;;;;;5.50;1.58;;;;;;;9.49;84.74;102510.34;5243234;28;20041;-73
2023/03/04 10:22:31;;;;;;;7.75;1.73;;;;;;;9.56;84.07;102520.47;5243976;28;20018;-73
2023/03/04 10:25:32;;;;;;;8.63;1.58;;;;;;;9.93;82.81;102501.84;5243256;28;20024;-74
2023/03/04 10:28:28;;;;;;;5.00;1.40;;;;;;;10.01;82.02;102511.03;5236645;28;20542;-74
2023/03/04 10:31:37;;;;;;;6.57;1.27;;;;;;;10.09;81.92;102507.06;5245589;28;20033;-74
2023/03/04 10:34:13;;;;;;;5.22;1.75;;;;;;;9.88;79.23;102503.00;5244812;28;20016;-74
2023/03/04 10:36:54;;;;;;;4.45;1.02;;;;;;;9.86;79.59;102503.09;5250495;28;20056;-73
2023/03/04 10:39:28;;;;;;;5.68;1.25;;;;;;;9.61;78.72;102500.13;5246306;28;20021;-73
2023/03/04 10:42:04;;;;;;;8.20;1.50;;;;;;;9.61;79.40;102502.75;5233733;28;20504;-73
2023/03/04 10:44:41;;;;;;;4.65;1.50;;;;;;;9.63;81.02;102499.13;5244105;28;20111;-73
2023/03/04 10:47:15;;;;;;;16.45;3.90;;;;;;;9.59;83.76;102488.91;5238990;28;20025;-73
2023/03/04 10:49:52;;;;;;;4.57;1.17;;;;;;;9.60;83.34;102496.69;5244842;28;20025;-73
2023/03/04 10:52:34;;;;;;;4.93;1.38;;;;;;;9.67;82.69;102500.66;5240225;28;20037;-73
2023/03/04 10:55:15;;;;;;;4.68;1.30;;;;;;;9.63;81.47;102499.13;5242343;28;20037;-74
2023/03/04 10:58:03;;;;;;;3.33;1.17;;;;;;;9.68;82.15;102498.88;5239214;28;20379;-73
2023/03/04 11:00:36;;;;;;;4.07;1.45;;;;;;;9.48;82.81;102494.72;5243003;28;20033;-73
2023/03/04 11:03:24;;;;;;;;;;;;;;;10.15;80.16;102498.88;5243481;28;20183;-74
2023/03/04 11:06:31;;;;;;;7.28;1.67;;;;;;;9.90;81.49;102488.06;5243098;28;19917;-74
2023/03/04 11:09:02;;;;;;;3.92;1.17;;;;;;;9.51;82.97;102484.09;5201941;28;20037;-74
2023/03/04 11:11:43;;;;;;;6.13;1.85;;;;;;;9.52;84.75;102482.34;5235477;28;20108;-73
2023/03/04 11:14:28;;;;;;;5.72;1.33;;;;;;;9.58;85.36;102488.06;5235934;28;20143;-73
2023/03/04 11:17:17;;;;;;;3.55;1.48;;;;;;;9.50;87.04;102485.84;5248065;28;20057;-73
2023/03/04 11:20:04;;;;;;;2.90;1.25;;;;;;;9.37;89.56;102481.38;5245486;28;20029;-73
2023/03/04 11:22:36;;;;;;;6.60;1.67;;;;;;;9.30;90.35;102480.00;5240133;28;20033;-73
2023/03/04 11:25:29;;;;;;;4.65;2.00;;;;;;;9.43;91.00;102486.25;5242404;28;20041;-73
2023/03/04 11:28:08;;;;;;;5.03;2.10;;;;;;;9.36;92.41;102477.94;5240816;28;20088;-73
2023/03/04 11:30:44;;;;;;;7.53;3.50;;;;;;;9.38;94.36;102475.22;5241497;28;20033;-73
2023/03/04 11:33:24;;;;;;;3.03;1.50;;;;;;;9.43;98.03;102475.81;5251048;28;20029;-73
2023/03/04 11:36:16;;;;;;;5.35;1.90;;;;;;;9.45;99.47;102466.13;5245528;28;20129;-73
2023/03/04 11:38:50;;;;;;;5.90;2.20;;;;;;;9.29;100.00;102458.25;5248736;28;20482;-73
2023/03/04 11:41:30;;;;;;;6.70;1.73;;;;;;;9.43;100.00;102468.81;5252404;28;20021;-74
2023/03/04 11:44:05;;;;;;;4.63;1.63;;;;;;;9.33;99.94;102462.38;5238615;28;20034;-73
2023/03/04 11:46:49;;;;;;;2.90;1.30;;;;;;;9.36;100.00;102462.22;5239294;28;20109;-73
2023/03/04 11:49:45;;;;;;;3.15;1.38;;;;;;;9.43;98.84;102458.34;5241716;28;20033;-73
2023/03/04 11:52:35;;;;;;;4.78;1.60;;;;;;;9.50;100.00;102451.84;5246730;28;20025;-73
2023/03/04 11:55:33;;;;;;;4.55;1.55;;;;;;;9.74;99.53;102443.59;5241220;28;20040;-73
2023/03/04 11:58:35;;;;;;;2.80;1.20;;;;;;;9.66;99.53;102432.69;5247030;28;20034;-73
2023/03/04 12:01:15;;;;;;;3.17;1.30;;;;;;;9.67;99.14;102431.78;5246904;28;20033;-73